sensor_id;sensor_type;location;lat;lon;timestamp;pressure;altitude;pressure_sealevel;temperature;humidity
21504;BME280;10913;51.992;9.228;2022-10-22T00:01:39;99787.53;;;12.98;100.00
21504;BME280;10913;51.992;9.228;2022-10-22T00:04:05;99787.53;;;12.98;100.00
21504;BME280;10913;51.992;9.228;2022-10-22T00:06:30;99784.88;;;12.98;100.00
21504;BME280;10913;51.992;9.228;2022-10-22T00:08:56;99782.25;;;12.98;100.00
21504;BME280;10913;51.992;9.228;2022-10-22T00:11:21;99779.63;;;12.96;100.00
21504;BME280;10913;51.992;9.228;2022-10-22T00:13:46;99773.44;;;12.96;100.00
21504;BME280;10913;51.992;9.228;2022-10-22T00:16:12;99769.97;;;12.94;100.00
21504;BME280;10913;51.992;9.228;2022-10-22T00:18:38;99770.84;;;12.94;100.00
21504;BME280;10913;51.992;9.228;2022-10-22T00:21:04;99765.56;;;12.93;100.00
21504;BME280;10913;51.992;9.228;2022-10-22T00:23:30;99781.47;;;12.93;100.00
21504;BME280;10913;51.992;9.228;2022-10-22T00:25:55;99783.28;;;12.91;100.00
21504;BME280;10913;51.992;9.228;2022-10-22T00:28:21;99785.06;;;12.90;100.00
21504;BME280;10913;51.992;9.228;2022-10-22T00:30:47;99792.13;;;12.91;100.00
21504;BME280;10913;51.992;9.228;2022-10-22T00:33:12;99792.16;;;12.90;100.00
21504;BME280;10913;51.992;9.228;2022-10-22T00:35:38;99796.63;;;12.88;100.00
21504;BME280;10913;51.992;9.228;2022-10-22T00:38:03;99797.56;;;12.85;100.00
21504;BME280;10913;51.992;9.228;2022-10-22T00:40:29;99800.22;;;12.85;100.00
21504;BME280;10913;51.992;9.228;2022-10-22T00:42:54;99809.97;;;12.83;100.00
21504;BME280;10913;51.992;9.228;2022-10-22T00:45:27;99809.09;;;12.83;100.00
21504;BME280;10913;51.992;9.228;2022-10-22T00:48:04;99814.41;;;12.83;100.00
21504;BME280;10913;51.992;9.228;2022-10-22T00:52:59;99807.38;;;12.80;100.00
21504;BME280;10913;51.992;9.228;2022-10-22T00:55:26;99809.16;;;12.80;100.00
21504;BME280;10913;51.992;9.228;2022-10-22T00:57:54;99802.22;;;12.75;100.00
21504;BME280;10913;51.992;9.228;2022-10-22T01:00:20;99807.53;;;12.75;100.00
21504;BME280;10913;51.992;9.228;2022-10-22T01:02:49;99809.25;;;12.76;100.00
21504;BME280;10913;51.992;9.228;2022-10-22T01:05:16;99811.00;;;12.77;100.00
21504;BME280;10913;51.992;9.228;2022-10-22T01:07:51;99818.97;;;12.77;100.00
21504;BME280;10913;51.992;9.228;2022-10-22T01:21:30;99809.41;;;12.70;100.00
21504;BME280;10913;51.992;9.228;2022-10-22T01:29:28;99814.78;;;12.66;100.00
21504;BME280;10913;51.992;9.228;2022-10-22T01:32:01;99811.34;;;12.62;100.00
21504;BME280;10913;51.992;9.228;2022-10-22T01:34:30;99814.91;;;12.61;100.00
21504;BME280;10913;51.992;9.228;2022-10-22T01:36:57;99799.03;;;12.60;100.00
21504;BME280;10913;51.992;9.228;2022-10-22T01:39:24;99795.50;;;12.59;100.00
21504;BME280;10913;51.992;9.228;2022-10-22T01:41:54;99783.25;;;12.55;100.00
21504;BME280;10913;51.992;9.228;2022-10-22T01:44:25;99785.91;;;12.55;100.00
21504;BME280;10913;51.992;9.228;2022-10-22T01:49:54;99792.09;;;12.56;100.00
21504;BME280;10913;51.992;9.228;2022-10-22T01:55:55;99781.59;;;12.51;100.00
21504;BME280;10913;51.992;9.228;2022-10-22T01:58:24;99794.84;;;12.50;100.00
21504;BME280;10913;51.992;9.228;2022-10-22T02:06:26;99794.09;;;12.45;100.00
21504;BME280;10913;51.992;9.228;2022-10-22T02:08:53;99797.66;;;12.42;100.00
21504;BME280;10913;51.992;9.228;2022-10-22T02:11:19;99802.13;;;12.40;100.00
21504;BME280;10913;51.992;9.228;2022-10-22T02:13:48;99794.25;;;12.38;100.00
21504;BME280;10913;51.992;9.228;2022-10-22T02:16:24;99790.75;;;12.36;100.00
21504;BME280;10913;51.992;9.228;2022-10-22T02:18:55;99782.84;;;12.35;100.00
21504;BME280;10913;51.992;9.228;2022-10-22T02:21:22;99789.03;;;12.34;100.00
21504;BME280;10913;51.992;9.228;2022-10-22T02:23:48;99784.69;;;12.31;100.00
21504;BME280;10913;51.992;9.228;2022-10-22T02:29:04;99795.41;;;12.25;100.00
21504;BME280;10913;51.992;9.228;2022-10-22T02:31:35;99800.69;;;12.25;100.00
21504;BME280;10913;51.992;9.228;2022-10-22T02:34:06;99812.16;;;12.26;100.00
21504;BME280;10913;51.992;9.228;2022-10-22T02:36:35;99814.84;;;12.24;100.00
21504;BME280;10913;51.992;9.228;2022-10-22T02:39:01;99804.28;;;12.23;100.00
21504;BME280;10913;51.992;9.228;2022-10-22T02:41:27;99812.22;;;12.23;100.00
21504;BME280;10913;51.992;9.228;2022-10-22T02:43:54;99810.47;;;12.22;100.00
21504;BME280;10913;51.992;9.228;2022-10-22T02:46:20;99804.41;;;12.18;100.00
21504;BME280;10913;51.992;9.228;2022-10-22T02:48:46;99808.81;;;12.18;100.00
21504;BME280;10913;51.992;9.228;2022-10-22T02:51:11;99805.34;;;12.16;100.00
21504;BME280;10913;51.992;9.228;2022-10-22T02:53:37;99814.16;;;12.16;100.00
21504;BME280;10913;51.992;9.228;2022-10-22T02:56:03;99806.22;;;12.15;100.00
21504;BME280;10913;51.992;9.228;2022-10-22T02:58:28;99810.63;;;12.16;100.00
21504;BME280;10913;51.992;9.228;2022-10-22T03:00:54;99815.03;;;12.17;100.00
21504;BME280;10913;51.992;9.228;2022-10-22T03:03:19;99821.19;;;12.17;100.00
21504;BME280;10913;51.992;9.228;2022-10-22T03:05:45;99809.72;;;12.17;100.00
21504;BME280;10913;51.992;9.228;2022-10-22T03:08:10;99807.97;;;12.16;100.00
21504;BME280;10913;51.992;9.228;2022-10-22T03:10:35;99805.34;;;12.16;100.00
21504;BME280;10913;51.992;9.228;2022-10-22T03:13:01;99804.44;;;12.17;100.00
21504;BME280;10913;51.992;9.228;2022-10-22T03:15:26;99808.81;;;12.18;100.00
21504;BME280;10913;51.992;9.228;2022-10-22T03:17:52;99809.69;;;12.18;100.00
21504;BME280;10913;51.992;9.228;2022-10-22T03:20:17;99793.81;;;12.18;100.00
21504;BME280;10913;51.992;9.228;2022-10-22T03:22:43;99801.81;;;12.15;100.00
21504;BME280;10913;51.992;9.228;2022-10-22T03:25:11;99804.50;;;12.14;100.00
21504;BME280;10913;51.992;9.228;2022-10-22T03:27:39;99809.78;;;12.14;100.00
21504;BME280;10913;51.992;9.228;2022-10-22T03:30:05;99804.53;;;12.11;100.00
21504;BME280;10913;51.992;9.228;2022-10-22T03:32:31;99817.78;;;12.11;100.00
21504;BME280;10913;51.992;9.228;2022-10-22T03:34:56;99813.41;;;12.10;100.00
21504;BME280;10913;51.992;9.228;2022-10-22T03:37:23;99819.56;;;12.10;100.00
21504;BME280;10913;51.992;9.228;2022-10-22T03:39:50;99836.34;;;12.09;100.00
21504;BME280;10913;51.992;9.228;2022-10-22T03:42:16;99841.69;;;12.06;100.00
21504;BME280;10913;51.992;9.228;2022-10-22T03:44:41;99843.53;;;12.02;100.00
21504;BME280;10913;51.992;9.228;2022-10-22T03:47:08;99842.69;;;12.00;100.00
21504;BME280;10913;51.992;9.228;2022-10-22T03:49:33;99846.28;;;11.98;100.00
21504;BME280;10913;51.992;9.228;2022-10-22T03:52:10;99838.38;;;11.96;100.00
21504;BME280;10913;51.992;9.228;2022-10-22T03:54:37;99852.50;;;11.97;100.00
21504;BME280;10913;51.992;9.228;2022-10-22T03:57:04;99844.56;;;11.95;100.00
21504;BME280;10913;51.992;9.228;2022-10-22T03:59:40;99857.84;;;11.94;100.00
21504;BME280;10913;51.992;9.228;2022-10-22T04:02:06;99853.44;;;11.93;100.00
21504;BME280;10913;51.992;9.228;2022-10-22T04:04:32;99857.88;;;11.92;100.00
21504;BME280;10913;51.992;9.228;2022-10-22T04:06:58;99871.09;;;11.92;100.00
21504;BME280;10913;51.992;9.228;2022-10-22T04:09:23;99870.19;;;11.93;100.00
21504;BME280;10913;51.992;9.228;2022-10-22T04:11:49;99882.53;;;11.94;100.00
21504;BME280;10913;51.992;9.228;2022-10-22T04:14:14;99883.38;;;11.96;100.00
21504;BME280;10913;51.992;9.228;2022-10-22T04:16:41;99877.22;;;11.96;100.00
21504;BME280;10913;51.992;9.228;2022-10-22T04:19:07;99888.69;;;11.96;100.00
21504;BME280;10913;51.992;9.228;2022-10-22T04:21:33;99887.81;;;11.96;100.00
21504;BME280;10913;51.992;9.228;2022-10-22T04:23:58;99871.03;;;11.97;100.00
21504;BME280;10913;51.992;9.228;2022-10-22T04:26:24;99878.09;;;11.96;100.00
21504;BME280;10913;51.992;9.228;2022-10-22T04:28:50;99871.91;;;11.96;100.00
21504;BME280;10913;51.992;9.228;2022-10-22T04:31:20;99864.84;;;11.96;100.00
21504;BME280;10913;51.992;9.228;2022-10-22T04:33:46;99869.25;;;11.97;100.00
21504;BME280;10913;51.992;9.228;2022-10-22T04:36:14;99875.44;;;11.96;100.00
21504;BME280;10913;51.992;9.228;2022-10-22T04:38:41;99871.94;;;11.94;100.00
21504;BME280;10913;51.992;9.228;2022-10-22T04:41:12;99871.09;;;11.92;100.00
21504;BME280;10913;51.992;9.228;2022-10-22T04:43:38;99869.41;;;11.88;100.00
21504;BME280;10913;51.992;9.228;2022-10-22T04:46:04;99878.31;;;11.84;100.00
21504;BME280;10913;51.992;9.228;2022-10-22T04:48:29;99880.09;;;11.82;100.00
21504;BME280;10913;51.992;9.228;2022-10-22T04:50:58;99874.03;;;11.77;100.00
21504;BME280;10913;51.992;9.228;2022-10-22T04:53:25;99874.03;;;11.76;100.00
21504;BME280;10913;51.992;9.228;2022-10-22T04:55:50;99870.53;;;11.75;100.00
21504;BME280;10913;51.992;9.228;2022-10-22T04:58:15;99869.66;;;11.74;100.00
21504;BME280;10913;51.992;9.228;2022-10-22T05:00:40;99871.41;;;11.74;100.00
21504;BME280;10913;51.992;9.228;2022-10-22T05:03:06;99864.38;;;11.73;100.00
21504;BME280;10913;51.992;9.228;2022-10-22T05:05:31;99864.38;;;11.73;100.00
21504;BME280;10913;51.992;9.228;2022-10-22T05:07:57;99868.78;;;11.72;100.00
21504;BME280;10913;51.992;9.228;2022-10-22T05:10:22;99868.78;;;11.72;100.00
21504;BME280;10913;51.992;9.228;2022-10-22T05:12:47;99872.31;;;11.73;100.00
21504;BME280;10913;51.992;9.228;2022-10-22T05:15:13;99877.59;;;11.73;100.00
21504;BME280;10913;51.992;9.228;2022-10-22T05:17:38;99889.97;;;11.72;100.00
21504;BME280;10913;51.992;9.228;2022-10-22T05:20:04;99895.28;;;11.71;100.00
21504;BME280;10913;51.992;9.228;2022-10-22T05:22:30;99888.25;;;11.70;100.00
21504;BME280;10913;51.992;9.228;2022-10-22T05:24:55;99890.00;;;11.69;100.00
21504;BME280;10913;51.992;9.228;2022-10-22T05:27:20;99890.03;;;11.68;100.00
21504;BME280;10913;51.992;9.228;2022-10-22T05:30:14;99890.00;;;11.69;100.00
21504;BME280;10913;51.992;9.228;2022-10-22T05:32:39;99879.44;;;11.69;100.00
21504;BME280;10913;51.992;9.228;2022-10-22T05:35:05;99891.75;;;11.70;100.00
21504;BME280;10913;51.992;9.228;2022-10-22T05:37:30;99887.41;;;11.68;100.00
21504;BME280;10913;51.992;9.228;2022-10-22T05:39:56;99892.69;;;11.68;100.00
21504;BME280;10913;51.992;9.228;2022-10-22T05:42:21;99895.38;;;11.65;100.00
21504;BME280;10913;51.992;9.228;2022-10-22T05:44:47;99901.56;;;11.64;100.00
21504;BME280;10913;51.992;9.228;2022-10-22T05:47:12;99900.75;;;11.60;100.00
21504;BME280;10913;51.992;9.228;2022-10-22T05:49:38;99906.09;;;11.59;100.00
21504;BME280;10913;51.992;9.228;2022-10-22T05:52:03;99910.53;;;11.57;100.00
21504;BME280;10913;51.992;9.228;2022-10-22T05:54:28;99914.06;;;11.56;100.00
21504;BME280;10913;51.992;9.228;2022-10-22T05:56:54;99909.72;;;11.53;100.00
21504;BME280;10913;51.992;9.228;2022-10-22T05:59:19;99910.59;;;11.54;100.00
21504;BME280;10913;51.992;9.228;2022-10-22T06:01:45;99909.72;;;11.53;100.00
21504;BME280;10913;51.992;9.228;2022-10-22T06:04:11;99908.88;;;11.50;100.00
21504;BME280;10913;51.992;9.228;2022-10-22T06:06:38;99915.94;;;11.49;100.00
21504;BME280;10913;51.992;9.228;2022-10-22T06:11:48;99919.50;;;11.47;100.00
21504;BME280;10913;51.992;9.228;2022-10-22T06:14:15;99916.88;;;11.45;100.00
21504;BME280;10913;51.992;9.228;2022-10-22T06:16:40;99917.75;;;11.46;100.00
21504;BME280;10913;51.992;9.228;2022-10-22T06:19:07;99923.06;;;11.46;100.00
21504;BME280;10913;51.992;9.228;2022-10-22T06:21:32;99921.28;;;11.46;100.00
21504;BME280;10913;51.992;9.228;2022-10-22T06:23:59;99933.63;;;11.46;100.00
21504;BME280;10913;51.992;9.228;2022-10-22T06:26:25;99938.03;;;11.47;100.00
21504;BME280;10913;51.992;9.228;2022-10-22T06:28:51;99942.41;;;11.48;100.00
21504;BME280;10913;51.992;9.228;2022-10-22T06:31:17;99948.56;;;11.50;100.00
21504;BME280;10913;51.992;9.228;2022-10-22T06:33:42;99951.16;;;11.53;100.00
21504;BME280;10913;51.992;9.228;2022-10-22T06:36:10;99962.59;;;11.55;100.00
21504;BME280;10913;51.992;9.228;2022-10-22T06:38:36;99957.19;;;11.59;100.00
21504;BME280;10913;51.992;9.228;2022-10-22T06:41:07;99962.44;;;11.62;100.00
21504;BME280;10913;51.992;9.228;2022-10-22T06:43:33;99970.34;;;11.65;100.00
21504;BME280;10913;51.992;9.228;2022-10-22T06:46:03;99975.56;;;11.70;100.00
21504;BME280;10913;51.992;9.228;2022-10-22T06:48:29;99980.81;;;11.76;100.00
21504;BME280;10913;51.992;9.228;2022-10-22T06:50:55;99984.22;;;11.81;100.00
21504;BME280;10913;51.992;9.228;2022-10-22T06:53:21;99989.41;;;11.87;100.00
21504;BME280;10913;51.992;9.228;2022-10-22T06:55:46;99986.69;;;11.93;100.00
21504;BME280;10913;51.992;9.228;2022-10-22T06:58:11;99996.25;;;12.00;100.00
21504;BME280;10913;51.992;9.228;2022-10-22T07:00:37;99995.25;;;12.07;100.00
21504;BME280;10913;51.992;9.228;2022-10-22T07:03:02;99992.50;;;12.14;100.00
21504;BME280;10913;51.992;9.228;2022-10-22T07:05:27;99996.75;;;12.21;100.00
21504;BME280;10913;51.992;9.228;2022-10-22T07:07:53;99994.88;;;12.27;100.00
21504;BME280;10913;51.992;9.228;2022-10-22T07:10:18;99998.22;;;12.38;100.00
21504;BME280;10913;51.992;9.228;2022-10-22T07:12:43;100003.22;;;12.54;100.00
21504;BME280;10913;51.992;9.228;2022-10-22T07:15:09;100000.41;;;12.61;100.00
21504;BME280;10913;51.992;9.228;2022-10-22T07:17:34;99995.84;;;12.69;100.00
21504;BME280;10913;51.992;9.228;2022-10-22T07:20:00;100000.13;;;12.76;100.00
21504;BME280;10913;51.992;9.228;2022-10-22T07:22:25;99996.41;;;12.84;100.00
21504;BME280;10913;51.992;9.228;2022-10-22T07:24:51;100003.34;;;12.91;100.00
21504;BME280;10913;51.992;9.228;2022-10-22T07:27:16;100002.84;;;13.15;100.00
21504;BME280;10913;51.992;9.228;2022-10-22T07:29:41;99999.53;;;13.44;100.00
21504;BME280;10913;51.992;9.228;2022-10-22T07:32:07;99998.84;;;13.73;100.00
21504;BME280;10913;51.992;9.228;2022-10-22T07:34:32;100000.97;;;13.94;100.00
21504;BME280;10913;51.992;9.228;2022-10-22T07:36:57;100005.81;;;14.12;100.00
21504;BME280;10913;51.992;9.228;2022-10-22T07:39:23;100008.47;;;14.46;100.00
21504;BME280;10913;51.992;9.228;2022-10-22T07:41:50;100014.28;;;15.21;100.00
21504;BME280;10913;51.992;9.228;2022-10-22T07:44:15;100017.91;;;15.77;100.00
21504;BME280;10913;51.992;9.228;2022-10-22T07:46:40;100020.25;;;16.13;100.00
21504;BME280;10913;51.992;9.228;2022-10-22T07:49:06;100019.03;;;16.74;100.00
21504;BME280;10913;51.992;9.228;2022-10-22T07:51:31;100025.94;;;18.15;99.99
21504;BME280;10913;51.992;9.228;2022-10-22T07:53:57;100016.97;;;19.55;93.54
21504;BME280;10913;51.992;9.228;2022-10-22T07:56:22;100013.03;;;19.99;92.38
21504;BME280;10913;51.992;9.228;2022-10-22T07:58:47;100012.16;;;20.51;90.56
21504;BME280;10913;51.992;9.228;2022-10-22T08:01:13;100006.44;;;21.08;88.12
21504;BME280;10913;51.992;9.228;2022-10-22T08:03:38;100006.59;;;22.00;85.39
21504;BME280;10913;51.992;9.228;2022-10-22T08:06:04;100005.03;;;23.29;81.22
21504;BME280;10913;51.992;9.228;2022-10-22T08:08:29;100011.72;;;24.45;77.30
21504;BME280;10913;51.992;9.228;2022-10-22T08:10:55;100019.72;;;24.47;76.13
21504;BME280;10913;51.992;9.228;2022-10-22T08:13:21;100018.75;;;24.60;76.71
21504;BME280;10913;51.992;9.228;2022-10-22T08:15:48;100023.78;;;25.30;74.32
21504;BME280;10913;51.992;9.228;2022-10-22T08:18:13;100013.31;;;26.46;71.30
21504;BME280;10913;51.992;9.228;2022-10-22T08:20:39;100016.69;;;27.52;68.73
21504;BME280;10913;51.992;9.228;2022-10-22T08:23:05;100018.31;;;28.40;66.60
21504;BME280;10913;51.992;9.228;2022-10-22T08:25:31;100012.56;;;29.17;64.51
21504;BME280;10913;51.992;9.228;2022-10-22T08:27:56;100009.41;;;29.92;62.46
21504;BME280;10913;51.992;9.228;2022-10-22T08:30:22;100012.31;;;30.48;60.77
21504;BME280;10913;51.992;9.228;2022-10-22T08:32:47;100013.69;;;31.01;59.65
21504;BME280;10913;51.992;9.228;2022-10-22T08:35:13;100009.00;;;31.67;59.01
21504;BME280;10913;51.992;9.228;2022-10-22T08:37:38;100009.38;;;32.17;57.91
21504;BME280;10913;51.992;9.228;2022-10-22T08:40:04;100007.91;;;32.59;57.13
21504;BME280;10913;51.992;9.228;2022-10-22T08:50:59;100014.00;;;32.88;55.59
21504;BME280;10913;51.992;9.228;2022-10-22T08:53:31;100017.13;;;32.58;56.10
21504;BME280;10913;51.992;9.228;2022-10-22T08:56:01;100011.38;;;32.25;56.71
21504;BME280;10913;51.992;9.228;2022-10-22T08:58:47;100019.94;;;31.95;57.28
21504;BME280;10913;51.992;9.228;2022-10-22T09:01:35;100011.75;;;31.67;58.01
21504;BME280;10913;51.992;9.228;2022-10-22T09:06:54;100013.25;;;31.52;57.96
21504;BME280;10913;51.992;9.228;2022-10-22T09:09:25;100022.59;;;31.12;58.52
21504;BME280;10913;51.992;9.228;2022-10-22T09:12:02;100016.47;;;30.14;60.54
21504;BME280;10913;51.992;9.228;2022-10-22T09:14:28;100027.94;;;29.28;63.19
21504;BME280;10913;51.992;9.228;2022-10-22T09:20:02;100026.25;;;27.78;66.88
21504;BME280;10913;51.992;9.228;2022-10-22T09:22:53;100037.91;;;26.19;68.11
21504;BME280;10913;51.992;9.228;2022-10-22T09:25:30;100040.25;;;25.14;73.23
21504;BME280;10913;51.992;9.228;2022-10-22T09:27:56;100042.63;;;24.14;74.44
21504;BME280;10913;51.992;9.228;2022-10-22T09:30:29;100049.47;;;23.79;77.21
21504;BME280;10913;51.992;9.228;2022-10-22T09:33:01;100042.56;;;23.75;77.55
21504;BME280;10913;51.992;9.228;2022-10-22T09:35:27;100045.72;;;23.67;77.44
21504;BME280;10913;51.992;9.228;2022-10-22T09:37:55;100040.72;;;23.75;77.60
21504;BME280;10913;51.992;9.228;2022-10-22T09:40:22;100048.47;;;23.94;76.97
21504;BME280;10913;51.992;9.228;2022-10-22T09:42:47;100047.19;;;23.99;77.56
21504;BME280;10913;51.992;9.228;2022-10-22T09:45:24;100042.75;;;23.98;77.31
21504;BME280;10913;51.992;9.228;2022-10-22T09:48:02;100048.88;;;24.15;77.17
21504;BME280;10913;51.992;9.228;2022-10-22T09:50:44;100056.25;;;23.72;76.59
21504;BME280;10913;51.992;9.228;2022-10-22T09:53:13;100052.03;;;23.53;78.33
21504;BME280;10913;51.992;9.228;2022-10-22T09:55:42;100057.88;;;23.31;79.96
21504;BME280;10913;51.992;9.228;2022-10-22T09:58:11;100055.66;;;23.24;80.04
21504;BME280;10913;51.992;9.228;2022-10-22T10:00:38;100049.41;;;23.09;80.20
21504;BME280;10913;51.992;9.228;2022-10-22T10:03:04;100039.63;;;22.78;80.88
21504;BME280;10913;51.992;9.228;2022-10-22T10:05:34;100051.47;;;22.46;82.31
21504;BME280;10913;51.992;9.228;2022-10-22T10:08:11;100054.03;;;22.33;84.44
21504;BME280;10913;51.992;9.228;2022-10-22T10:10:48;100059.44;;;22.17;84.67
21504;BME280;10913;51.992;9.228;2022-10-22T10:23:42;100072.25;;;20.99;88.09
21504;BME280;10913;51.992;9.228;2022-10-22T10:29:25;100086.53;;;20.67;89.47
21504;BME280;10913;51.992;9.228;2022-10-22T10:37:25;100085.78;;;20.80;89.08
21504;BME280;10913;51.992;9.228;2022-10-22T10:42:32;100082.44;;;21.27;87.89
21504;BME280;10913;51.992;9.228;2022-10-22T10:48:43;100090.03;;;21.52;85.79
21504;BME280;10913;51.992;9.228;2022-10-22T10:51:41;100086.09;;;21.42;87.02
21504;BME280;10913;51.992;9.228;2022-10-22T10:56:59;100079.44;;;21.16;87.43
21504;BME280;10913;51.992;9.228;2022-10-22T11:05:43;100079.56;;;20.97;89.78
21504;BME280;10913;51.992;9.228;2022-10-22T11:11:11;100083.41;;;21.09;89.76
21504;BME280;10913;51.992;9.228;2022-10-22T11:19:10;100077.81;;;20.96;84.99
21504;BME280;10913;51.992;9.228;2022-10-22T11:21:41;100084.38;;;20.90;85.55
21504;BME280;10913;51.992;9.228;2022-10-22T11:24:25;100090.06;;;20.84;85.34
21504;BME280;10913;51.992;9.228;2022-10-22T11:30:19;100080.84;;;20.73;86.29
21504;BME280;10913;51.992;9.228;2022-10-22T11:32:54;100084.31;;;20.75;85.93
21504;BME280;10913;51.992;9.228;2022-10-22T11:35:26;100091.50;;;20.74;86.21
21504;BME280;10913;51.992;9.228;2022-10-22T11:37:54;100099.31;;;20.61;83.41
21504;BME280;10913;51.992;9.228;2022-10-22T11:40:30;100095.97;;;20.39;83.84
21504;BME280;10913;51.992;9.228;2022-10-22T11:43:08;100085.31;;;20.19;85.42
21504;BME280;10913;51.992;9.228;2022-10-22T11:45:40;100085.81;;;20.10;86.98
21504;BME280;10913;51.992;9.228;2022-10-22T12:16:27;100079.41;;;20.66;88.03
21504;BME280;10913;51.992;9.228;2022-10-22T12:21:41;100074.69;;;20.71;87.48
21504;BME280;10913;51.992;9.228;2022-10-22T12:24:12;100069.38;;;20.69;86.61
21504;BME280;10913;51.992;9.228;2022-10-22T12:26:38;100070.66;;;20.62;87.72
21504;BME280;10913;51.992;9.228;2022-10-22T12:29:09;100070.56;;;20.46;87.12
21504;BME280;10913;51.992;9.228;2022-10-22T12:31:38;100076.41;;;20.37;88.10
21504;BME280;10913;51.992;9.228;2022-10-22T12:34:04;100084.00;;;20.27;88.85
21504;BME280;10913;51.992;9.228;2022-10-22T12:36:32;100089.13;;;20.15;89.59
21504;BME280;10913;51.992;9.228;2022-10-22T12:38:59;100104.00;;;20.03;90.49
21504;BME280;10913;51.992;9.228;2022-10-22T12:41:33;100116.28;;;19.90;90.94
21504;BME280;10913;51.992;9.228;2022-10-22T12:44:00;100118.81;;;19.55;91.21
21504;BME280;10913;51.992;9.228;2022-10-22T12:46:27;100114.03;;;19.42;90.78
21504;BME280;10913;51.992;9.228;2022-10-22T12:48:54;100105.75;;;19.27;91.16
21504;BME280;10913;51.992;9.228;2022-10-22T12:51:20;100100.41;;;19.27;91.96
21504;BME280;10913;51.992;9.228;2022-10-22T12:53:48;100105.38;;;19.37;92.71
21504;BME280;10913;51.992;9.228;2022-10-22T12:56:47;100106.78;;;19.44;92.07
21504;BME280;10913;51.992;9.228;2022-10-22T12:59:22;100108.22;;;19.52;91.41
21504;BME280;10913;51.992;9.228;2022-10-22T13:01:50;100108.03;;;19.57;91.65
21504;BME280;10913;51.992;9.228;2022-10-22T13:07:36;100109.75;;;19.58;90.53
21504;BME280;10913;51.992;9.228;2022-10-22T13:09:42;100117.56;;;19.63;90.84
21504;BME280;10913;51.992;9.228;2022-10-22T13:12:09;100104.03;;;19.66;91.04
21504;BME280;10913;51.992;9.228;2022-10-22T13:14:40;100100.47;;;19.65;91.25
21504;BME280;10913;51.992;9.228;2022-10-22T13:24:56;100115.78;;;19.43;91.17
21504;BME280;10913;51.992;9.228;2022-10-22T13:27:23;100106.22;;;19.37;91.73
21504;BME280;10913;51.992;9.228;2022-10-22T13:29:49;100112.00;;;19.28;91.93
21504;BME280;10913;51.992;9.228;2022-10-22T13:34:52;100116.19;;;19.15;91.52
21504;BME280;10913;51.992;9.228;2022-10-22T13:37:19;100120.66;;;19.14;91.87
21504;BME280;10913;51.992;9.228;2022-10-22T13:39:44;100125.16;;;19.14;92.40
21504;BME280;10913;51.992;9.228;2022-10-22T13:42:11;100123.28;;;19.16;93.14
21504;BME280;10913;51.992;9.228;2022-10-22T13:44:36;100121.00;;;19.07;93.08
21504;BME280;10913;51.992;9.228;2022-10-22T13:47:01;100113.38;;;18.98;92.53
21504;BME280;10913;51.992;9.228;2022-10-22T13:49:27;100119.94;;;18.90;93.02
21504;BME280;10913;51.992;9.228;2022-10-22T13:51:52;100121.94;;;18.85;92.07
21504;BME280;10913;51.992;9.228;2022-10-22T13:54:22;100122.00;;;18.84;92.69
21504;BME280;10913;51.992;9.228;2022-10-22T13:56:48;100126.88;;;18.74;91.28
21504;BME280;10913;51.992;9.228;2022-10-22T13:59:14;100133.25;;;18.72;91.87
21504;BME280;10913;51.992;9.228;2022-10-22T14:01:40;100126.34;;;18.66;91.96
21504;BME280;10913;51.992;9.228;2022-10-22T14:04:07;100125.28;;;18.70;90.99
21504;BME280;10913;51.992;9.228;2022-10-22T14:06:36;100123.41;;;18.72;90.91
21504;BME280;10913;51.992;9.228;2022-10-22T14:09:07;100126.16;;;18.71;90.65
21504;BME280;10913;51.992;9.228;2022-10-22T14:11:35;100136.09;;;18.67;90.38
21504;BME280;10913;51.992;9.228;2022-10-22T14:14:01;100133.13;;;18.53;89.49
21504;BME280;10913;51.992;9.228;2022-10-22T14:16:30;100134.25;;;18.47;90.32
21504;BME280;10913;51.992;9.228;2022-10-22T14:18:57;100134.81;;;18.34;89.62
21504;BME280;10913;51.992;9.228;2022-10-22T14:21:23;100127.78;;;18.31;89.88
21504;BME280;10913;51.992;9.228;2022-10-22T14:23:48;100142.97;;;18.31;90.33
21504;BME280;10913;51.992;9.228;2022-10-22T14:26:24;100133.06;;;18.33;90.71
21504;BME280;10913;51.992;9.228;2022-10-22T14:28:52;100131.41;;;18.30;90.89
21504;BME280;10913;51.992;9.228;2022-10-22T14:31:17;100137.72;;;18.28;91.52
21504;BME280;10913;51.992;9.228;2022-10-22T14:33:43;100142.03;;;18.32;90.83
21504;BME280;10913;51.992;9.228;2022-10-22T14:36:13;100150.06;;;18.32;90.18
21504;BME280;10913;51.992;9.228;2022-10-22T14:38:38;100153.59;;;18.32;90.13
21504;BME280;10913;51.992;9.228;2022-10-22T14:41:13;100153.59;;;18.32;90.59
21504;BME280;10913;51.992;9.228;2022-10-22T14:43:40;100159.00;;;18.31;90.76
21504;BME280;10913;51.992;9.228;2022-10-22T14:46:05;100159.94;;;18.30;90.96
21504;BME280;10913;51.992;9.228;2022-10-22T14:48:31;100156.47;;;18.28;91.33
21504;BME280;10913;51.992;9.228;2022-10-22T14:50:56;100163.78;;;18.22;92.09
21504;BME280;10913;51.992;9.228;2022-10-22T14:53:21;100162.19;;;18.18;92.62
21504;BME280;10913;51.992;9.228;2022-10-22T14:55:47;100168.47;;;18.17;92.63
21504;BME280;10913;51.992;9.228;2022-10-22T14:58:14;100164.06;;;18.16;92.92
21504;BME280;10913;51.992;9.228;2022-10-22T15:00:41;100175.69;;;18.15;93.38
21504;BME280;10913;51.992;9.228;2022-10-22T15:03:07;100167.78;;;18.12;93.27
21504;BME280;10913;51.992;9.228;2022-10-22T15:05:32;100174.06;;;18.11;93.21
21504;BME280;10913;51.992;9.228;2022-10-22T15:07:58;100171.44;;;18.10;92.83
21504;BME280;10913;51.992;9.228;2022-10-22T15:10:25;100181.38;;;18.06;92.92
21504;BME280;10913;51.992;9.228;2022-10-22T15:12:50;100185.09;;;18.02;92.69
21504;BME280;10913;51.992;9.228;2022-10-22T15:15:16;100182.53;;;17.99;93.16